Time;durP1;ratioP1;P1;durP2;ratioP2;P2;SDS_P1;SDS_P2;PMS_P1;PMS_P2;Temp;Humidity;BMP_temperature;BMP_pressure;BME280_temperature;BME280_humidity;BME280_pressure;Samples;Min_cycle;Max_cycle;Signal;HPM_P1;HPM_P2
2023/10/27 00:02:07;;;;;;;18.00;2.90;;;18.70;99.20;;;19.04;61.33;93999.19;5004710;28;20469;-64
2023/10/27 00:04:34;;;;;;;13.20;2.37;;;18.70;99.10;;;19.03;61.31;93997.56;5008752;28;20470;-62
2023/10/27 00:07:02;;;;;;;10.27;2.83;;;18.70;99.00;;;19.03;60.98;93985.03;5007260;28;20457;-64
2023/10/27 00:09:33;;;;;;;10.00;2.30;;;18.70;99.30;;;19.05;61.74;93995.50;5002693;28;20545;-64
2023/10/27 00:12:00;;;;;;;6.37;2.50;;;18.70;98.80;;;19.03;61.01;93997.56;4999243;28;20439;-59
2023/10/27 00:14:27;;;;;;;15.37;2.90;;;18.70;98.70;;;19.03;60.99;94001.03;5000672;28;20985;-63
2023/10/27 00:16:54;;;;;;;10.57;2.50;;;18.70;98.70;;;19.04;61.25;93992.03;5001078;28;20865;-64
2023/10/27 00:19:24;;;;;;;9.70;2.20;;;18.70;98.70;;;19.05;61.34;93984.84;5002305;28;20481;-65
2023/10/27 00:21:51;;;;;;;9.33;1.80;;;18.70;98.70;;;19.04;60.43;93977.84;4998583;28;20502;-63
2023/10/27 00:24:18;;;;;;;5.10;1.90;;;18.70;98.60;;;19.06;60.46;93997.13;4999539;28;20474;-63
2023/10/27 00:26:47;;;;;;;7.07;2.30;;;18.70;98.40;;;19.05;60.34;93998.97;4998552;28;20934;-60
2023/10/27 00:29:15;;;;;;;9.63;3.00;;;18.70;98.30;;;19.04;60.83;94000.00;5002408;28;20466;-63
2023/10/27 00:31:42;;;;;;;8.93;1.93;;;18.70;98.30;;;19.04;60.82;94001.84;4999622;28;20459;-60
2023/10/27 00:34:09;;;;;;;16.73;2.83;;;18.70;98.30;;;19.04;60.45;94001.84;4996276;28;20477;-61
2023/10/27 00:36:36;;;;;;;8.03;2.10;;;18.70;98.30;;;19.02;60.39;93996.72;4996198;28;20454;-61
2023/10/27 00:39:04;;;;;;;14.90;4.00;;;18.70;98.30;;;18.99;60.61;93992.66;4999458;28;20462;-64
2023/10/27 00:41:32;;;;;;;10.73;3.97;;;18.70;98.30;;;18.94;61.03;93989.78;4995715;28;20517;-61
2023/10/27 00:44:00;;;;;;;13.60;3.87;;;18.60;98.20;;;18.87;60.74;93997.03;5002375;28;21024;-61
2023/10/27 00:46:27;;;;;;;10.57;3.97;;;18.60;98.30;;;18.78;60.80;93984.94;4999770;28;20823;-63
2023/10/27 00:48:55;;;;;;;9.80;3.10;;;18.50;98.40;;;18.74;61.00;93989.06;4997759;28;20493;-61
2023/10/27 00:51:22;;;;;;;6.70;3.80;;;18.40;98.50;;;18.67;61.49;93996.25;4998702;28;20459;-60
2023/10/27 00:53:49;;;;;;;20.97;3.63;;;18.40;98.50;;;18.57;61.36;93992.19;5000039;28;20462;-61
2023/10/27 00:56:17;;;;;;;6.00;3.80;;;18.30;98.50;;;18.47;61.74;94005.16;4999949;28;20461;-63
2023/10/27 00:58:45;;;;;;;8.87;4.30;;;18.20;98.70;;;18.38;61.26;94009.06;5000395;28;20458;-63
2023/10/27 01:01:15;;;;;;;9.40;4.50;;;18.10;98.80;;;18.32;62.08;94001.91;5000136;28;20538;-61
2023/10/27 01:03:42;;;;;;;8.20;3.80;;;18.00;99.00;;;18.24;61.96;94000.28;5000136;28;20456;-63
2023/10/27 01:06:10;;;;;;;9.70;4.57;;;18.00;99.00;;;18.13;62.28;94009.72;4996128;28;20517;-64
2023/10/27 01:08:37;;;;;;;12.17;4.77;;;17.90;99.10;;;18.02;62.53;94013.84;4999078;28;20454;-63
2023/10/27 01:11:05;;;;;;;21.90;5.30;;;17.80;99.20;;;17.91;62.77;94015.28;4998441;28;20453;-60
2023/10/27 01:13:32;;;;;;;11.93;4.60;;;17.70;99.50;;;17.81;63.15;94000.75;4998047;28;20462;-63
2023/10/27 01:15:59;;;;;;;11.37;4.10;;;17.60;99.60;;;17.73;63.10;94005.22;4997419;28;20467;-62
2023/10/27 01:18:28;;;;;;;8.47;4.97;;;17.50;99.80;;;17.67;63.38;93999.94;4998713;28;20943;-61
2023/10/27 01:20:55;;;;;;;11.00;4.20;;;17.40;99.90;;;17.61;63.70;93993.56;4997970;28;20498;-61
2023/10/27 01:23:24;;;;;;;19.03;5.77;;;17.30;99.90;;;17.58;63.79;94007.28;4997699;28;20454;-61
2023/10/27 01:25:51;;;;;;;11.43;4.03;;;17.30;99.90;;;17.53;63.89;93999.91;4999264;28;20473;-63
2023/10/27 01:28:18;;;;;;;15.33;4.30;;;17.30;99.90;;;17.52;64.34;93992.97;4998393;28;20540;-64
2023/10/27 01:30:46;;;;;;;16.33;4.20;;;17.20;99.90;;;17.52;63.90;94000.13;4996065;28;20474;-63
2023/10/27 01:33:13;;;;;;;12.23;4.10;;;17.20;99.90;;;17.51;63.97;93999.31;4997919;28;20956;-63
2023/10/27 01:35:41;;;;;;;10.17;3.67;;;17.20;99.90;;;17.50;64.30;94005.63;4998203;28;20501;-62
2023/10/27 01:38:08;;;;;;;9.10;3.57;;;17.20;99.90;;;17.49;64.40;94019.13;4997095;28;20447;-60
2023/10/27 01:40:36;;;;;;;18.87;3.33;;;17.20;99.90;;;17.45;64.50;94000.13;4998878;28;20500;-61
2023/10/27 01:43:04;;;;;;;7.87;3.40;;;17.10;99.90;;;17.44;64.64;94016.28;4999422;28;20450;-63
2023/10/27 01:45:31;;;;;;;16.90;3.90;;;17.10;99.90;;;17.43;64.34;94004.84;4996526;28;20628;-63
2023/10/27 01:47:59;;;;;;;8.10;2.87;;;17.10;99.90;;;17.43;64.31;93996.88;4995250;28;20446;-60
2023/10/27 01:50:26;;;;;;;6.60;3.27;;;17.10;99.90;;;17.39;64.12;93995.63;4995776;28;20583;-61
2023/10/27 01:52:53;;;;;;;7.00;4.13;;;17.10;99.90;;;17.35;64.27;94003.19;4998844;28;20454;-61
2023/10/27 01:55:20;;;;;;;10.40;3.53;;;17.10;99.90;;;17.32;64.93;94008.06;4996441;28;20466;-61
2023/10/27 01:57:49;;;;;;;15.23;3.87;;;17.00;99.90;;;17.30;64.66;93996.84;4997559;28;20534;-61
2023/10/27 02:00:17;;;;;;;7.33;3.23;;;17.00;99.90;;;17.26;64.52;94004.41;4997301;28;20874;-61
2023/10/27 02:02:44;;;;;;;9.13;3.63;;;17.00;99.90;;;17.26;65.15;94001.75;4993853;28;20509;-60
2023/10/27 02:05:11;;;;;;;5.97;3.67;;;17.00;99.90;;;17.26;64.67;93985.81;5001881;28;20481;-64
2023/10/27 02:07:39;;;;;;;13.63;5.60;;;17.00;99.90;;;17.25;64.58;93996.63;4996230;28;20557;-63
2023/10/27 02:10:07;;;;;;;12.60;3.80;;;17.00;99.90;;;17.22;65.28;93991.72;4998855;28;21127;-63
2023/10/27 02:12:34;;;;;;;13.73;3.97;;;16.90;99.90;;;17.22;65.53;93991.72;4997667;28;20462;-62
2023/10/27 02:15:03;;;;;;;15.00;3.87;;;16.90;99.90;;;17.23;65.14;93993.34;5000035;28;20546;-63
2023/10/27 02:17:30;;;;;;;11.33;3.73;;;17.00;99.90;;;17.26;65.27;94000.91;4998808;28;20464;-60
2023/10/27 02:19:58;;;;;;;7.40;3.90;;;17.00;99.90;;;17.26;65.08;94001.75;4999207;28;20474;-64
2023/10/27 02:22:25;;;;;;;15.90;4.50;;;16.90;99.90;;;17.26;64.97;93992.94;4998134;28;20454;-60
2023/10/27 02:24:52;;;;;;;14.20;4.40;;;16.90;99.90;;;17.25;65.36;93997.44;4998215;28;20473;-64
2023/10/27 02:27:20;;;;;;;11.70;5.07;;;17.00;99.90;;;17.22;65.72;93995.19;4999001;28;20481;-64
2023/10/27 02:29:47;;;;;;;52.00;5.70;;;16.90;99.90;;;17.20;65.45;93992.75;5000418;28;20480;-64
2023/10/27 02:32:16;;;;;;;15.30;6.43;;;16.90;99.90;;;17.20;65.27;94002.56;4999016;28;20521;-63
2023/10/27 02:34:43;;;;;;;15.37;5.33;;;16.90;99.90;;;17.18;65.25;93992.13;4997898;28;21029;-60
2023/10/27 02:37:10;;;;;;;19.13;5.13;;;16.90;99.90;;;17.18;65.33;93992.13;5000305;28;20458;-60
2023/10/27 02:39:39;;;;;;;8.37;4.27;;;16.90;99.90;;;17.17;65.18;93989.69;4997838;28;20470;-64
2023/10/27 02:42:07;;;;;;;9.83;4.30;;;16.80;99.90;;;17.12;65.48;93987.63;5000331;28;20583;-63
2023/10/27 02:44:34;;;;;;;10.03;4.33;;;16.80;99.90;;;17.09;65.75;93973.94;4999190;28;20470;-64
2023/10/27 02:47:01;;;;;;;8.60;4.13;;;16.80;99.90;;;17.04;66.18;93974.53;4998468;28;20461;-63
2023/10/27 02:49:30;;;;;;;18.23;4.90;;;16.80;99.90;;;17.02;65.64;93977.41;5003424;28;20930;-64
2023/10/27 02:51:57;;;;;;;17.80;5.40;;;16.70;99.90;;;17.00;66.30;93979.41;5004356;28;20540;-61
2023/10/27 02:54:25;;;;;;;14.17;5.07;;;16.70;99.90;;;17.01;66.12;93991.69;5005749;28;21015;-64
2023/10/27 02:56:52;;;;;;;14.53;4.30;;;16.70;99.90;;;17.01;66.05;93977.59;5002083;28;20993;-62
2023/10/27 02:59:19;;;;;;;15.80;4.37;;;16.70;99.90;;;17.01;66.41;93974.94;5004075;28;20491;-59
2023/10/27 03:01:47;;;;;;;13.20;3.80;;;16.70;99.90;;;17.03;66.18;93972.91;5004995;28;20482;-64
2023/10/27 03:04:14;;;;;;;7.57;3.70;;;16.80;99.90;;;17.07;66.27;93984.75;5001611;28;20501;-61
2023/10/27 03:06:44;;;;;;;9.53;2.70;;;16.80;99.90;;;17.13;66.01;93977.81;5003591;28;20450;-62
2023/10/27 03:09:11;;;;;;;33.27;19.33;;;16.80;99.90;;;17.20;65.42;93963.50;5001714;28;20547;-63
2023/10/27 03:11:38;;;;;;;6.60;3.50;;;16.90;99.90;;;17.36;65.74;93972.09;5001260;28;20466;-63
2023/10/27 03:14:06;;;;;;;13.83;4.13;;;17.00;99.90;;;17.48;64.87;93967.81;5002444;28;20478;-63
2023/10/27 03:16:34;;;;;;;22.50;9.47;;;17.10;99.90;;;17.63;64.44;93969.44;4999311;28;20511;-63
2023/10/27 03:19:02;;;;;;;5.37;2.50;;;17.30;99.90;;;17.75;64.66;93965.13;5000118;28;20470;-60
2023/10/27 03:21:29;;;;;;;10.73;2.83;;;17.40;99.90;;;17.88;63.63;93969.63;5002874;28;20556;-60
2023/10/27 03:23:58;;;;;;;6.40;3.40;;;17.50;99.90;;;17.98;63.84;93963.91;4999160;28;20458;-64
2023/10/27 03:26:25;;;;;;;5.63;2.37;;;17.60;99.90;;;18.04;63.31;93963.09;5001209;28;20454;-64
2023/10/27 03:28:53;;;;;;;4.50;2.60;;;17.70;99.90;;;18.10;62.81;93962.25;5002104;28;20477;-62
2023/10/27 03:31:20;;;;;;;12.20;2.93;;;17.70;99.90;;;18.15;62.51;93959.78;5001746;28;20454;-61
2023/10/27 03:33:48;;;;;;;8.97;3.00;;;17.80;99.90;;;18.23;62.72;93961.38;5003292;28;20449;-63
2023/10/27 03:36:15;;;;;;;4.87;2.63;;;17.90;99.90;;;18.29;62.57;93965.88;5001406;28;20462;-60
2023/10/27 03:38:42;;;;;;;14.17;3.07;;;17.90;99.90;;;18.31;62.72;93955.00;5000841;28;20454;-63
2023/10/27 03:41:11;;;;;;;8.53;4.07;;;18.00;99.90;;;18.31;62.30;93957.69;5000699;28;20482;-64
2023/10/27 03:43:38;;;;;;;11.93;4.50;;;18.00;99.90;;;18.28;62.25;93965.06;5001371;28;20455;-63
2023/10/27 03:46:07;;;;;;;11.27;2.40;;;18.00;99.80;;;18.26;61.87;93945.00;5003077;28;20504;-62
2023/10/27 03:48:34;;;;;;;2.40;2.20;;;17.90;99.50;;;18.24;62.18;93937.22;5002026;28;20454;-61
2023/10/27 03:51:05;;;;;;;4.53;2.53;;;17.90;99.60;;;18.20;61.66;93944.00;5000708;28;20466;-64
2023/10/27 03:53:32;;;;;;;6.53;2.93;;;17.90;99.50;;;18.19;61.78;93950.34;5002057;28;20537;-62
2023/10/27 03:55:59;;;;;;;9.60;3.03;;;17.90;99.60;;;18.14;62.57;93941.34;5003034;28;20532;-64
2023/10/27 03:58:29;;;;;;;11.53;4.07;;;17.90;99.80;;;18.03;62.29;93942.81;5001117;28;20507;-62
2023/10/27 04:00:57;;;;;;;10.50;4.80;;;17.80;99.90;;;17.90;62.87;93925.84;5000621;28;21003;-61
2023/10/27 04:03:24;;;;;;;8.90;4.20;;;17.60;99.90;;;17.79;64.21;93933.63;4996903;28;20453;-63
2023/10/27 04:05:52;;;;;;;13.30;4.50;;;17.60;99.90;;;17.68;63.93;93932.44;5002323;28;20475;-62
2023/10/27 04:08:19;;;;;;;13.07;4.93;;;17.40;99.90;;;17.58;64.44;93916.06;4999418;28;20457;-62
2023/10/27 04:10:46;;;;;;;19.50;7.67;;;17.40;99.90;;;17.48;64.18;93913.84;5001659;28;20470;-61
2023/10/27 04:13:14;;;;;;;17.43;5.30;;;17.30;99.90;;;17.38;64.22;93917.72;5002910;28;20454;-64
2023/10/27 04:15:44;;;;;;;21.10;5.20;;;17.10;99.90;;;17.30;64.71;93909.13;5000935;28;20570;-63
2023/10/27 04:18:12;;;;;;;12.83;4.97;;;17.10;99.90;;;17.20;65.28;93910.34;5000760;28;20836;-64
2023/10/27 04:20:39;;;;;;;40.13;16.93;;;17.00;99.90;;;17.12;66.39;93912.41;5000113;28;21054;-63
2023/10/27 04:23:09;;;;;;;21.43;7.60;;;16.90;99.90;;;17.02;66.17;93896.88;5002269;28;20597;-65
2023/10/27 04:25:38;;;;;;;12.47;6.30;;;16.80;99.90;;;16.96;66.34;93910.94;5003259;28;20469;-66
2023/10/27 04:28:06;;;;;;;12.77;4.67;;;16.80;99.90;;;16.91;67.00;93906.25;5000642;28;20451;-64
2023/10/27 04:30:36;;;;;;;10.90;4.47;;;16.70;99.90;;;16.89;66.93;93915.47;4995997;28;20482;-65
2023/10/27 04:33:05;;;;;;;12.60;5.07;;;16.70;99.90;;;16.88;66.99;93927.09;4996565;28;20492;-66
2023/10/27 04:35:33;;;;;;;11.33;4.87;;;16.60;99.90;;;16.90;67.50;93911.75;4999033;28;20802;-65
2023/10/27 04:38:00;;;;;;;15.30;5.33;;;16.60;99.90;;;16.93;67.51;93917.50;5001592;28;20981;-62
2023/10/27 04:40:30;;;;;;;8.23;4.67;;;16.60;99.90;;;16.97;67.35;93920.56;4998838;28;20481;-64
2023/10/27 04:42:58;;;;;;;9.83;4.20;;;16.70;99.90;;;16.99;67.15;93921.19;4998434;28;20493;-63
2023/10/27 04:45:25;;;;;;;17.97;4.80;;;16.70;99.90;;;17.00;67.45;93918.31;4996781;28;21012;-62
2023/10/27 04:47:53;;;;;;;20.63;5.63;;;16.70;99.90;;;17.00;67.06;93906.88;4994892;28;20435;-72
2023/10/27 04:50:23;;;;;;;10.43;4.17;;;16.70;99.90;;;16.97;67.12;93896.66;5000203;28;20501;-62
2023/10/27 04:52:51;;;;;;;18.73;7.40;;;16.70;99.90;;;16.96;67.53;93921.59;4997434;28;20571;-65
2023/10/27 04:55:19;;;;;;;21.70;5.70;;;16.70;99.90;;;16.97;67.79;93900.13;4938660;28;20990;-63
2023/10/27 04:57:46;;;;;;;12.20;5.40;;;16.70;99.90;;;16.99;67.74;93918.53;5004082;28;20967;-62
2023/10/27 05:00:14;;;;;;;28.33;6.20;;;16.70;99.90;;;16.98;67.72;93900.97;5004144;28;20954;-65
2023/10/27 05:02:42;;;;;;;16.87;7.00;;;16.70;99.90;;;16.95;67.38;93891.56;5004875;28;20985;-61
2023/10/27 05:05:11;;;;;;;24.63;6.43;;;16.70;99.90;;;16.92;67.81;93885.84;5011038;28;21069;-63
2023/10/27 05:07:40;;;;;;;27.53;5.30;;;16.70;99.90;;;16.92;67.44;93880.53;5006503;28;20564;-66
2023/10/27 05:10:08;;;;;;;18.70;5.30;;;16.60;99.90;;;16.91;67.44;93885.00;5003846;28;20473;-64
2023/10/27 05:12:36;;;;;;;23.67;8.67;;;16.60;99.90;;;16.87;67.74;93904.19;5005969;28;20489;-61
2023/10/27 05:15:04;;;;;;;24.60;6.17;;;16.60;99.90;;;16.84;67.86;93886.81;5006026;28;20497;-61
2023/10/27 05:17:34;;;;;;;13.87;6.47;;;16.60;99.90;;;16.81;67.77;93882.72;5004688;28;20458;-62
2023/10/27 05:20:03;;;;;;;14.17;4.80;;;16.60;99.90;;;16.79;67.86;93892.75;5005620;28;20497;-62
2023/10/27 05:22:30;;;;;;;25.40;5.60;;;16.60;99.90;;;16.76;68.07;93879.03;5005935;28;20521;-61
2023/10/27 05:25:01;;;;;;;31.77;5.33;;;16.50;99.90;;;16.75;68.60;93888.03;5003189;28;20548;-63
2023/10/27 05:27:28;;;;;;;11.60;4.67;;;16.50;99.90;;;16.72;68.55;93886.59;4996210;28;20447;-63
2023/10/27 05:29:55;;;;;;;11.13;3.90;;;16.50;99.90;;;16.69;68.22;93881.69;4999097;28;20966;-63
2023/10/27 05:32:23;;;;;;;8.33;4.50;;;16.50;99.90;;;16.71;68.61;93897.41;4999291;28;21001;-63
2023/10/27 05:34:50;;;;;;;12.47;4.93;;;16.40;99.90;;;16.71;68.53;93890.25;4999767;28;20467;-63
2023/10/27 05:37:19;;;;;;;17.40;5.93;;;16.50;99.90;;;16.74;68.42;93881.06;4997998;28;20474;-62
2023/10/27 05:39:46;;;;;;;8.60;4.90;;;16.50;99.90;;;16.78;68.70;93888.44;5001788;28;20494;-62
2023/10/27 05:42:15;;;;;;;11.73;5.07;;;16.50;99.90;;;16.83;68.28;93901.91;4995331;28;20854;-61
2023/10/27 05:44:42;;;;;;;15.53;5.17;;;16.50;99.90;;;16.91;68.75;93903.59;4999454;28;20939;-62
2023/10/27 05:47:10;;;;;;;10.40;4.63;;;16.60;99.90;;;16.97;68.24;93916.06;5002412;28;20456;-64
2023/10/27 05:49:37;;;;;;;23.73;4.87;;;16.70;99.90;;;17.03;68.66;93928.53;4996686;28;20502;-62
2023/10/27 05:52:05;;;;;;;12.63;4.37;;;16.70;99.90;;;17.08;68.26;93922.63;4999596;28;20457;-62
2023/10/27 05:54:32;;;;;;;16.60;4.87;;;16.80;99.90;;;17.14;67.81;93934.28;5001829;28;20473;-61
2023/10/27 05:57:00;;;;;;;10.43;4.20;;;16.80;99.90;;;17.24;67.59;93941.84;5000276;28;20449;-63
2023/10/27 05:59:29;;;;;;;16.67;4.00;;;16.90;99.90;;;17.33;67.96;93957.38;4998963;28;20565;-61
2023/10/27 06:01:56;;;;;;;16.40;4.50;;;17.00;99.90;;;17.45;67.28;93933.66;4994637;28;20560;-62
2023/10/27 06:04:23;;;;;;;19.73;4.13;;;17.10;99.90;;;17.56;67.21;93951.66;4994772;28;20480;-63
2023/10/27 06:06:50;;;;;;;8.80;3.50;;;17.20;99.90;;;17.71;66.53;93958.59;5001007;28;20461;-63
2023/10/27 06:09:18;;;;;;;17.83;4.03;;;17.30;99.90;;;17.81;65.98;93936.91;4998749;28;20537;-62
2023/10/27 06:11:45;;;;;;;15.73;3.67;;;17.40;99.90;;;17.90;66.39;93925.84;4997926;28;20815;-59
2023/10/27 06:14:12;;;;;;;9.43;4.73;;;17.50;99.90;;;17.96;65.46;93924.22;5003222;28;20493;-62
2023/10/27 06:16:41;;;;;;;12.90;2.97;;;17.70;99.90;;;18.04;64.36;93937.28;5001126;28;20466;-63
2023/10/27 06:19:08;;;;;;;5.03;2.90;;;17.70;99.90;;;18.16;63.80;93923.34;4998331;28;21230;-63
2023/10/27 06:21:36;;;;;;;10.13;3.07;;;17.80;99.90;;;18.31;63.58;93933.72;4999809;28;20492;-61
2023/10/27 06:24:04;;;;;;;6.67;3.80;;;17.90;99.90;;;18.46;62.97;93921.75;5002955;28;20497;-61
2023/10/27 06:26:31;;;;;;;15.10;3.67;;;18.10;99.90;;;18.64;62.71;93930.91;5006132;28;20536;-61
2023/10/27 06:28:59;;;;;;;7.30;2.13;;;18.30;99.90;;;18.82;61.86;93932.84;5002628;28;20450;-61
2023/10/27 06:31:27;;;;;;;9.67;2.60;;;18.40;99.90;;;19.04;61.96;93924.56;5001753;28;20549;-61
2023/10/27 06:33:56;;;;;;;12.67;3.23;;;18.60;99.90;;;19.25;60.95;93937.53;5001158;28;20541;-61
2023/10/27 06:36:24;;;;;;;9.97;3.50;;;18.80;99.50;;;19.41;60.64;93940.69;5005041;28;20455;-60
2023/10/27 06:38:51;;;;;;;14.87;3.57;;;19.00;99.10;;;19.56;60.26;93930.50;5004006;28;21048;-61
2023/10/27 06:41:19;;;;;;;17.57;3.50;;;19.10;98.90;;;19.74;59.49;93939.63;5004474;28;20445;-62
2023/10/27 06:43:46;;;;;;;15.23;2.67;;;19.30;98.00;;;19.93;59.14;93935.94;5002635;28;20457;-61
2023/10/27 06:46:13;;;;;;;9.50;3.53;;;19.50;98.00;;;20.10;58.89;93938.06;5003465;28;20982;-61
2023/10/27 06:48:41;;;;;;;12.10;3.90;;;19.60;97.70;;;20.20;58.66;93935.66;4998693;28;20819;-62
2023/10/27 06:51:10;;;;;;;8.20;3.23;;;19.80;97.60;;;20.22;58.68;93939.75;5004036;28;20453;-62
2023/10/27 06:53:37;;;;;;;15.33;4.57;;;19.80;97.50;;;20.23;58.49;93936.06;5002701;28;20469;-59
2023/10/27 06:56:06;;;;;;;11.83;4.83;;;19.80;97.50;;;20.22;58.91;93944.28;5002351;28;20461;-62
2023/10/27 06:58:33;;;;;;;22.50;5.30;;;19.80;97.70;;;20.18;58.97;93940.41;5001668;28;20451;-59
2023/10/27 07:01:06;;;;;;;22.53;6.47;;;19.80;97.70;;;20.09;59.04;93947.09;5003471;28;20526;-61
2023/10/27 07:03:35;;;;;;;20.60;7.27;;;19.80;97.90;;;20.05;59.75;93936.06;5002433;28;20484;-60
2023/10/27 07:06:03;;;;;;;20.53;6.93;;;19.70;98.20;;;20.01;60.00;93927.66;5002292;28;20482;-60
2023/10/27 07:08:32;;;;;;;15.17;6.70;;;19.70;98.50;;;19.99;60.51;93935.06;5001023;28;20544;-62
2023/10/27 07:10:59;;;;;;;17.00;7.40;;;19.60;98.80;;;20.04;60.54;93934.41;5004638;28;20641;-61
2023/10/27 07:13:26;;;;;;;25.43;7.50;;;19.70;99.10;;;20.16;60.85;93913.13;5002973;28;20500;-60
2023/10/27 07:15:54;;;;;;;17.63;7.37;;;19.80;99.20;;;20.26;60.62;93942.78;5004065;28;20469;-62
2023/10/27 07:18:21;;;;;;;10.00;5.33;;;19.90;99.00;;;20.27;60.37;93933.75;4997850;28;20874;-61
2023/10/27 07:20:48;;;;;;;19.90;4.93;;;20.00;98.60;;;20.31;60.02;93929.59;5004366;28;20508;-62
2023/10/27 07:23:16;;;;;;;19.37;6.47;;;20.00;98.30;;;20.37;59.55;93933.22;5002011;28;20489;-62
2023/10/27 07:25:44;;;;;;;24.97;7.60;;;20.10;98.30;;;20.34;59.75;93939.84;5001886;28;21069;-61
2023/10/27 07:28:12;;;;;;;19.13;7.27;;;20.10;98.20;;;20.27;60.01;93927.59;5002226;28;20520;-62
2023/10/27 07:30:40;;;;;;;24.23;8.03;;;20.00;98.20;;;20.20;59.71;93922.31;5003506;28;20481;-61
2023/10/27 07:33:07;;;;;;;13.47;6.70;;;19.90;98.20;;;20.19;60.37;93923.38;5004011;28;20446;-61
2023/10/27 07:35:34;;;;;;;38.83;8.70;;;19.90;98.60;;;20.24;60.33;93928.84;5001424;28;20470;-61
2023/10/27 07:38:03;;;;;;;18.10;7.40;;;19.90;99.00;;;20.31;60.38;93924.25;4996216;28;20505;-60
2023/10/27 07:40:30;;;;;;;16.23;6.20;;;20.00;98.70;;;20.38;60.09;93930.31;4998818;28;20496;-62
2023/10/27 07:42:59;;;;;;;9.57;5.37;;;20.00;98.50;;;20.39;60.05;93931.16;5001737;28;21026;-59
2023/10/27 07:45:26;;;;;;;20.90;7.20;;;20.10;98.40;;;20.41;59.81;93929.88;5005496;28;20470;-61
2023/10/27 07:47:54;;;;;;;22.27;6.27;;;20.10;98.20;;;20.58;60.27;93934.63;5004505;28;20511;-62
2023/10/27 07:50:21;;;;;;;14.30;4.20;;;20.20;98.70;;;20.94;59.30;93938.28;4998829;28;20882;-62
2023/10/27 07:52:48;;;;;;;16.97;2.73;;;20.50;98.20;;;21.35;58.64;93936.66;5000128;28;20447;-60
2023/10/27 07:55:15;;;;;;;10.97;2.33;;;20.80;97.70;;;21.69;55.61;93939.66;4999863;28;20480;-63
2023/10/27 07:57:43;;;;;;;7.57;1.60;;;21.10;94.90;;;21.96;54.78;93934.63;4999195;28;20451;-63
2023/10/27 08:00:14;;;;;;;5.43;1.40;;;21.40;93.70;;;22.11;53.29;93923.47;4999562;28;20486;-64
2023/10/27 08:02:41;;;;;;;9.67;1.97;;;21.60;92.80;;;22.16;53.40;93926.22;5004409;28;20473;-67
2023/10/27 08:05:09;;;;;;;10.63;2.27;;;21.70;92.10;;;22.27;53.29;93929.94;5000162;28;20462;-63
2023/10/27 08:07:37;;;;;;;4.80;2.03;;;21.80;92.30;;;22.41;52.60;93919.00;4999443;28;21103;-64
2023/10/27 08:10:07;;;;;;;8.20;2.17;;;22.00;91.70;;;22.59;53.03;93934.94;4998793;28;20509;-63
2023/10/27 08:12:35;;;;;;;9.13;1.77;;;22.10;91.60;;;22.89;51.46;93931.22;4995408;28;20450;-63
2023/10/27 08:15:05;;;;;;;9.70;2.63;;;22.40;90.50;;;23.17;50.86;93922.34;5002249;28;20483;-61
2023/10/27 08:17:33;;;;;;;8.73;1.97;;;22.60;90.20;;;23.43;51.33;93923.59;5001674;28;20497;-61
2023/10/27 08:20:01;;;;;;;22.70;2.17;;;22.90;90.10;;;23.78;50.12;93919.03;4996948;28;20470;-62
2023/10/27 08:22:28;;;;;;;2.90;1.67;;;23.20;88.90;;;24.13;49.36;93904.53;5003607;28;20489;-66
2023/10/27 08:24:56;;;;;;;10.97;1.50;;;23.60;87.70;;;24.40;48.17;93906.50;5004657;28;21005;-63
2023/10/27 08:27:23;;;;;;;3.93;2.30;;;23.80;85.10;;;24.40;47.03;93907.31;5001411;28;20462;-64
2023/10/27 08:29:54;;;;;;;9.80;3.57;;;23.90;80.50;;;24.26;46.41;93906.03;5005411;28;20553;-63
2023/10/27 08:32:22;;;;;;;2.90;1.50;;;23.80;78.60;;;24.09;47.20;93906.09;4997421;28;20508;-64
2023/10/27 08:34:50;;;;;;;8.17;1.73;;;23.70;77.90;;;24.05;47.66;93915.72;5003203;28;20465;-64
2023/10/27 08:37:18;;;;;;;21.37;2.37;;;23.70;79.20;;;24.13;47.29;93928.72;5005880;28;20829;-65
2023/10/27 08:39:45;;;;;;;11.40;1.70;;;23.70;79.70;;;24.32;46.51;93911.25;5004941;28;20465;-65
2023/10/27 08:42:12;;;;;;;2.90;1.23;;;23.80;77.30;;;24.54;46.96;93915.81;5005252;28;20462;-64
2023/10/27 08:44:40;;;;;;;7.73;1.93;;;24.00;78.80;;;24.82;45.92;93920.22;5003358;28;20978;-65
2023/10/27 08:47:07;;;;;;;4.00;1.70;;;24.30;77.00;;;25.11;44.79;93922.66;5005588;28;20486;-63
2023/10/27 08:49:34;;;;;;;16.70;2.10;;;24.50;74.70;;;25.32;42.89;93910.25;5010438;28;20473;-62
2023/10/27 08:52:03;;;;;;;6.47;2.37;;;24.70;71.60;;;25.37;43.36;93904.88;5004000;28;20481;-62
2023/10/27 08:54:31;;;;;;;13.63;1.70;;;24.80;71.70;;;25.31;43.26;93921.25;4997227;28;21000;-63
2023/10/27 08:56:58;;;;;;;4.20;1.33;;;24.80;71.70;;;25.16;43.65;93909.25;5002365;28;20790;-63
2023/10/27 08:59:25;;;;;;;5.23;1.47;;;24.70;70.10;;;25.18;43.48;93911.69;5001711;28;20484;-63
2023/10/27 09:01:55;;;;;;;6.90;1.37;;;24.70;70.60;;;25.23;44.02;93914.44;5004508;28;20519;-65
2023/10/27 09:04:23;;;;;;;4.23;1.53;;;24.70;71.70;;;25.23;44.25;93909.03;5001211;28;20823;-64
2023/10/27 09:06:51;;;;;;;8.50;1.47;;;24.70;71.30;;;25.22;43.66;93912.78;5002572;28;20536;-63
2023/10/27 09:09:20;;;;;;;8.50;1.30;;;24.70;70.10;;;25.20;43.39;93904.16;5002876;28;20469;-63
2023/10/27 09:11:48;;;;;;;4.33;1.40;;;24.70;70.00;;;25.15;43.99;93896.06;5000390;28;20472;-64
2023/10/27 09:14:22;;;;;;;4.30;1.33;;;24.70;70.50;;;25.18;43.74;93896.34;5009492;28;20476;-63
2023/10/27 09:16:49;;;;;;;2.40;1.47;;;24.70;69.90;;;25.32;43.66;93886.00;5000677;28;20461;-65
2023/10/27 09:19:21;;;;;;;7.87;1.20;;;24.80;69.80;;;25.55;43.49;93886.75;4997786;28;21025;-63
2023/10/27 09:21:49;;;;;;;6.40;1.10;;;25.00;70.00;;;25.74;41.91;93877.19;4996031;28;20459;-63
2023/10/27 09:24:25;;;;;;;7.07;1.87;;;25.10;67.30;;;25.73;42.01;93886.34;5004731;28;20496;-62
2023/10/27 09:26:52;;;;;;;16.30;1.27;;;25.20;67.50;;;25.63;41.90;93869.31;5001045;28;20514;-62
2023/10/27 09:29:20;;;;;;;5.03;1.23;;;25.10;66.60;;;25.48;42.26;93872.69;4998546;28;20571;-62
2023/10/27 09:31:47;;;;;;;2.20;0.77;;;25.00;66.80;;;25.32;41.98;93864.47;4998617;28;20515;-62
2023/10/27 09:34:19;;;;;;;9.80;1.50;;;24.90;66.40;;;25.10;41.77;93871.78;4999540;28;20483;-63
2023/10/27 09:36:47;;;;;;;1.50;1.00;;;24.70;66.40;;;24.77;42.50;93852.09;5003989;28;20466;-63
2023/10/27 09:39:18;;;;;;;6.90;1.47;;;24.40;67.70;;;24.65;43.74;93842.31;5002544;28;20473;-64
2023/10/27 09:41:48;;;;;;;5.90;1.77;;;24.30;68.10;;;24.73;43.38;93856.38;5002647;28;21072;-64
2023/10/27 09:44:16;;;;;;;3.27;1.30;;;24.30;68.80;;;24.74;43.28;93860.66;5004077;28;20500;-63
2023/10/27 09:46:52;;;;;;;9.53;1.17;;;24.30;68.70;;;24.75;43.23;93873.06;4999860;28;20561;-63
2023/10/27 09:49:26;;;;;;;5.60;1.20;;;24.30;68.60;;;24.70;43.32;93846.91;5006318;28;20556;-62
2023/10/27 09:51:58;;;;;;;7.70;1.63;;;24.30;68.00;;;24.65;42.83;93865.69;4997961;28;21345;-62
2023/10/27 09:54:27;;;;;;;3.67;1.27;;;24.20;67.80;;;24.55;43.66;93849.41;5002246;28;21004;-62
2023/10/27 09:56:57;;;;;;;3.77;1.70;;;24.10;68.40;;;24.48;44.25;93838.88;4999345;28;20525;-63
2023/10/27 09:59:24;;;;;;;7.67;1.30;;;24.00;68.70;;;24.45;44.02;93825.94;5000635;28;20897;-64
2023/10/27 10:01:51;;;;;;;10.37;1.27;;;24.00;68.10;;;24.35;43.22;93821.22;4996396;28;20974;-61
2023/10/27 10:05:01;;;;;;;7.37;1.37;;;23.90;67.80;;;24.19;43.44;93820.25;5004658;28;20489;-62
2023/10/27 10:07:33;;;;;;;5.50;1.63;;;23.80;68.20;;;24.12;44.46;93824.97;5002603;28;20465;-64
2023/10/27 10:10:18;;;;;;;9.10;1.47;;;23.70;68.80;;;24.07;43.99;93828.41;4996370;28;20480;-64
2023/10/27 10:13:09;;;;;;;5.33;1.50;;;23.70;68.80;;;23.95;43.97;93820.50;5000829;28;20532;-62
2023/10/27 10:15:37;;;;;;;10.50;2.07;;;23.60;68.80;;;23.90;44.44;93823.09;5001476;28;20469;-62
2023/10/27 10:18:06;;;;;;;5.83;1.40;;;23.50;69.30;;;23.90;44.66;93823.09;5002538;28;20560;-62
2023/10/27 10:20:58;;;;;;;7.13;1.70;;;23.50;69.50;;;23.91;44.72;93850.78;5001124;28;20498;-63